sensor_id;sensor_type;location;lat;lon;timestamp;P1;durP1;ratioP1;P2;durP2;ratioP2
43883;SDS011;29544;52.018;5.810;2023-04-24T00:00:31;1.40;;;0.90;;
43883;SDS011;29544;52.018;5.810;2023-04-24T00:02:57;1.70;;;0.90;;
43883;SDS011;29544;52.018;5.810;2023-04-24T00:05:22;1.15;;;0.57;;
43883;SDS011;29544;52.018;5.810;2023-04-24T00:07:48;2.33;;;1.27;;
43883;SDS011;29544;52.018;5.810;2023-04-24T00:10:17;1.52;;;1.10;;
43883;SDS011;29544;52.018;5.810;2023-04-24T00:12:43;2.03;;;0.90;;
43883;SDS011;29544;52.018;5.810;2023-04-24T00:15:08;1.80;;;0.80;;
43883;SDS011;29544;52.018;5.810;2023-04-24T00:17:34;2.20;;;1.02;;
43883;SDS011;29544;52.018;5.810;2023-04-24T00:20:00;2.00;;;1.10;;
43883;SDS011;29544;52.018;5.810;2023-04-24T00:22:29;1.45;;;0.77;;
43883;SDS011;29544;52.018;5.810;2023-04-24T00:24:55;1.17;;;0.80;;
43883;SDS011;29544;52.018;5.810;2023-04-24T00:27:21;1.80;;;0.80;;
43883;SDS011;29544;52.018;5.810;2023-04-24T00:29:47;1.90;;;0.60;;
43883;SDS011;29544;52.018;5.810;2023-04-24T00:32:12;1.57;;;0.77;;
43883;SDS011;29544;52.018;5.810;2023-04-24T00:34:38;1.73;;;0.82;;
43883;SDS011;29544;52.018;5.810;2023-04-24T00:37:04;1.65;;;0.65;;
43883;SDS011;29544;52.018;5.810;2023-04-24T00:39:30;1.23;;;0.67;;
43883;SDS011;29544;52.018;5.810;2023-04-24T00:41:56;2.60;;;0.87;;
43883;SDS011;29544;52.018;5.810;2023-04-24T00:44:22;1.67;;;0.85;;
43883;SDS011;29544;52.018;5.810;2023-04-24T00:46:47;2.05;;;0.80;;
43883;SDS011;29544;52.018;5.810;2023-04-24T00:49:17;1.23;;;0.80;;
43883;SDS011;29544;52.018;5.810;2023-04-24T00:51:43;1.35;;;0.50;;
43883;SDS011;29544;52.018;5.810;2023-04-24T00:54:11;1.20;;;0.60;;
43883;SDS011;29544;52.018;5.810;2023-04-24T00:56:37;2.88;;;0.50;;
43883;SDS011;29544;52.018;5.810;2023-04-24T00:59:02;0.93;;;0.50;;
43883;SDS011;29544;52.018;5.810;2023-04-24T01:01:29;0.77;;;0.32;;
43883;SDS011;29544;52.018;5.810;2023-04-24T01:03:55;0.80;;;0.50;;
43883;SDS011;29544;52.018;5.810;2023-04-24T01:06:22;1.10;;;0.50;;
43883;SDS011;29544;52.018;5.810;2023-04-24T01:08:52;1.02;;;0.70;;
43883;SDS011;29544;52.018;5.810;2023-04-24T01:11:17;1.20;;;0.50;;
43883;SDS011;29544;52.018;5.810;2023-04-24T01:13:43;2.37;;;0.60;;
43883;SDS011;29544;52.018;5.810;2023-04-24T01:16:10;0.90;;;0.45;;
43883;SDS011;29544;52.018;5.810;2023-04-24T01:18:35;1.20;;;0.50;;
43883;SDS011;29544;52.018;5.810;2023-04-24T01:23:28;1.10;;;0.40;;
43883;SDS011;29544;52.018;5.810;2023-04-24T01:25:54;0.85;;;0.32;;
43883;SDS011;29544;52.018;5.810;2023-04-24T01:28:20;1.63;;;0.63;;
43883;SDS011;29544;52.018;5.810;2023-04-24T01:30:46;0.85;;;0.40;;
43883;SDS011;29544;52.018;5.810;2023-04-24T01:33:12;0.73;;;0.47;;
43883;SDS011;29544;52.018;5.810;2023-04-24T01:35:38;1.35;;;0.43;;
43883;SDS011;29544;52.018;5.810;2023-04-24T01:38:03;0.40;;;0.40;;
43883;SDS011;29544;52.018;5.810;2023-04-24T01:40:30;0.38;;;0.30;;
43883;SDS011;29544;52.018;5.810;2023-04-24T01:42:56;0.80;;;0.30;;
43883;SDS011;29544;52.018;5.810;2023-04-24T01:45:23;1.05;;;0.32;;
43883;SDS011;29544;52.018;5.810;2023-04-24T01:47:49;1.83;;;0.40;;
43883;SDS011;29544;52.018;5.810;2023-04-24T01:50:15;0.73;;;0.30;;
43883;SDS011;29544;52.018;5.810;2023-04-24T01:52:40;0.75;;;0.40;;
43883;SDS011;29544;52.018;5.810;2023-04-24T01:55:06;1.07;;;0.50;;
43883;SDS011;29544;52.018;5.810;2023-04-24T01:57:32;1.30;;;0.75;;
43883;SDS011;29544;52.018;5.810;2023-04-24T01:59:58;0.50;;;0.20;;
43883;SDS011;29544;52.018;5.810;2023-04-24T02:02:24;0.50;;;0.30;;
43883;SDS011;29544;52.018;5.810;2023-04-24T02:04:52;0.20;;;0.20;;
43883;SDS011;29544;52.018;5.810;2023-04-24T02:07:21;0.82;;;0.30;;
43883;SDS011;29544;52.018;5.810;2023-04-24T02:09:46;0.20;;;0.20;;
43883;SDS011;29544;52.018;5.810;2023-04-24T02:12:12;1.33;;;0.52;;
43883;SDS011;29544;52.018;5.810;2023-04-24T02:14:38;1.60;;;0.70;;
43883;SDS011;29544;52.018;5.810;2023-04-24T02:17:03;0.47;;;0.10;;
43883;SDS011;29544;52.018;5.810;2023-04-24T02:19:29;0.80;;;0.30;;
43883;SDS011;29544;52.018;5.810;2023-04-24T02:21:55;0.40;;;0.30;;
43883;SDS011;29544;52.018;5.810;2023-04-24T02:24:21;0.33;;;0.13;;
43883;SDS011;29544;52.018;5.810;2023-04-24T02:26:46;1.03;;;0.20;;
43883;SDS011;29544;52.018;5.810;2023-04-24T02:29:12;0.63;;;0.30;;
43883;SDS011;29544;52.018;5.810;2023-04-24T02:31:37;0.30;;;0.20;;
43883;SDS011;29544;52.018;5.810;2023-04-24T02:34:03;0.43;;;0.17;;
43883;SDS011;29544;52.018;5.810;2023-04-24T02:36:28;0.60;;;0.20;;
43883;SDS011;29544;52.018;5.810;2023-04-24T02:41:20;0.77;;;0.35;;
43883;SDS011;29544;52.018;5.810;2023-04-24T02:43:46;0.67;;;0.27;;
43883;SDS011;29544;52.018;5.810;2023-04-24T02:46:11;0.17;;;0.10;;
43883;SDS011;29544;52.018;5.810;2023-04-24T02:48:37;0.47;;;0.30;;
43883;SDS011;29544;52.018;5.810;2023-04-24T02:51:03;0.40;;;0.30;;
43883;SDS011;29544;52.018;5.810;2023-04-24T02:53:28;0.63;;;0.30;;
43883;SDS011;29544;52.018;5.810;2023-04-24T02:55:55;4.43;;;0.40;;
43883;SDS011;29544;52.018;5.810;2023-04-24T02:58:21;0.57;;;0.20;;
43883;SDS011;29544;52.018;5.810;2023-04-24T03:00:46;0.37;;;0.20;;
43883;SDS011;29544;52.018;5.810;2023-04-24T03:03:12;0.40;;;0.13;;
43883;SDS011;29544;52.018;5.810;2023-04-24T03:05:38;0.27;;;0.10;;
43883;SDS011;29544;52.018;5.810;2023-04-24T03:08:03;0.35;;;0.20;;
43883;SDS011;29544;52.018;5.810;2023-04-24T03:10:29;0.35;;;0.20;;
43883;SDS011;29544;52.018;5.810;2023-04-24T03:12:55;0.30;;;0.20;;
43883;SDS011;29544;52.018;5.810;2023-04-24T03:15:20;0.27;;;0.20;;
43883;SDS011;29544;52.018;5.810;2023-04-24T03:17:46;0.67;;;0.30;;
43883;SDS011;29544;52.018;5.810;2023-04-24T03:20:12;2.10;;;0.23;;
43883;SDS011;29544;52.018;5.810;2023-04-24T03:22:37;0.93;;;0.23;;
43883;SDS011;29544;52.018;5.810;2023-04-24T03:25:03;0.37;;;0.23;;
43883;SDS011;29544;52.018;5.810;2023-04-24T03:27:29;0.52;;;0.32;;
43883;SDS011;29544;52.018;5.810;2023-04-24T03:29:55;0.77;;;0.40;;
43883;SDS011;29544;52.018;5.810;2023-04-24T03:32:21;2.20;;;0.50;;
43883;SDS011;29544;52.018;5.810;2023-04-24T03:34:48;0.38;;;0.20;;
43883;SDS011;29544;52.018;5.810;2023-04-24T03:37:15;0.52;;;0.22;;
43883;SDS011;29544;52.018;5.810;2023-04-24T03:39:41;0.55;;;0.20;;
43883;SDS011;29544;52.018;5.810;2023-04-24T03:42:06;1.77;;;0.47;;
43883;SDS011;29544;52.018;5.810;2023-04-24T03:44:33;0.93;;;0.38;;
43883;SDS011;29544;52.018;5.810;2023-04-24T03:46:59;0.40;;;0.40;;
43883;SDS011;29544;52.018;5.810;2023-04-24T03:49:25;0.70;;;0.45;;
43883;SDS011;29544;52.018;5.810;2023-04-24T03:51:50;0.60;;;0.50;;
43883;SDS011;29544;52.018;5.810;2023-04-24T03:54:17;0.30;;;0.30;;
43883;SDS011;29544;52.018;5.810;2023-04-24T03:56:43;0.95;;;0.47;;
43883;SDS011;29544;52.018;5.810;2023-04-24T03:59:08;0.73;;;0.40;;
43883;SDS011;29544;52.018;5.810;2023-04-24T04:01:34;0.83;;;0.50;;
43883;SDS011;29544;52.018;5.810;2023-04-24T04:04:02;0.82;;;0.55;;
43883;SDS011;29544;52.018;5.810;2023-04-24T04:08:55;1.38;;;0.70;;
43883;SDS011;29544;52.018;5.810;2023-04-24T04:11:21;1.48;;;0.68;;
43883;SDS011;29544;52.018;5.810;2023-04-24T04:13:47;0.43;;;0.43;;
43883;SDS011;29544;52.018;5.810;2023-04-24T04:16:12;0.60;;;0.50;;
43883;SDS011;29544;52.018;5.810;2023-04-24T04:18:38;1.27;;;0.77;;
43883;SDS011;29544;52.018;5.810;2023-04-24T04:21:04;1.70;;;1.20;;
43883;SDS011;29544;52.018;5.810;2023-04-24T04:23:29;2.07;;;0.90;;
43883;SDS011;29544;52.018;5.810;2023-04-24T04:25:55;2.20;;;1.10;;
43883;SDS011;29544;52.018;5.810;2023-04-24T04:28:20;1.40;;;0.80;;
43883;SDS011;29544;52.018;5.810;2023-04-24T04:30:46;0.90;;;0.80;;
43883;SDS011;29544;52.018;5.810;2023-04-24T04:33:12;1.85;;;1.10;;
43883;SDS011;29544;52.018;5.810;2023-04-24T04:35:38;1.55;;;1.08;;
43883;SDS011;29544;52.018;5.810;2023-04-24T04:38:03;1.67;;;1.13;;
43883;SDS011;29544;52.018;5.810;2023-04-24T04:40:29;3.53;;;1.15;;
43883;SDS011;29544;52.018;5.810;2023-04-24T04:42:55;1.43;;;1.17;;
43883;SDS011;29544;52.018;5.810;2023-04-24T04:45:20;1.70;;;1.57;;
43883;SDS011;29544;52.018;5.810;2023-04-24T04:47:46;1.50;;;1.10;;
43883;SDS011;29544;52.018;5.810;2023-04-24T04:50:12;2.22;;;1.48;;
43883;SDS011;29544;52.018;5.810;2023-04-24T04:52:38;2.95;;;1.55;;
43883;SDS011;29544;52.018;5.810;2023-04-24T04:55:04;3.17;;;1.40;;
43883;SDS011;29544;52.018;5.810;2023-04-24T04:57:30;4.40;;;1.60;;
43883;SDS011;29544;52.018;5.810;2023-04-24T04:59:56;3.53;;;1.50;;
43883;SDS011;29544;52.018;5.810;2023-04-24T05:02:21;3.30;;;2.03;;
43883;SDS011;29544;52.018;5.810;2023-04-24T05:04:47;1.90;;;1.27;;
43883;SDS011;29544;52.018;5.810;2023-04-24T05:07:12;2.97;;;1.70;;
43883;SDS011;29544;52.018;5.810;2023-04-24T05:09:38;1.97;;;1.30;;
43883;SDS011;29544;52.018;5.810;2023-04-24T05:12:03;2.37;;;1.47;;
43883;SDS011;29544;52.018;5.810;2023-04-24T05:14:29;3.13;;;1.73;;
43883;SDS011;29544;52.018;5.810;2023-04-24T05:16:54;2.60;;;1.70;;
43883;SDS011;29544;52.018;5.810;2023-04-24T05:19:20;5.50;;;1.93;;
43883;SDS011;29544;52.018;5.810;2023-04-24T05:21:45;2.43;;;1.60;;
43883;SDS011;29544;52.018;5.810;2023-04-24T05:24:11;3.50;;;1.80;;
43883;SDS011;29544;52.018;5.810;2023-04-24T05:26:36;2.40;;;1.70;;
43883;SDS011;29544;52.018;5.810;2023-04-24T05:29:02;4.53;;;2.10;;
43883;SDS011;29544;52.018;5.810;2023-04-24T05:31:28;1.77;;;1.60;;
43883;SDS011;29544;52.018;5.810;2023-04-24T05:33:54;2.97;;;1.80;;
43883;SDS011;29544;52.018;5.810;2023-04-24T05:36:20;4.93;;;1.97;;
43883;SDS011;29544;52.018;5.810;2023-04-24T05:38:45;4.20;;;2.00;;
43883;SDS011;29544;52.018;5.810;2023-04-24T05:41:11;2.67;;;1.60;;
43883;SDS011;29544;52.018;5.810;2023-04-24T05:43:36;1.40;;;1.30;;
43883;SDS011;29544;52.018;5.810;2023-04-24T05:46:02;2.43;;;1.50;;
43883;SDS011;29544;52.018;5.810;2023-04-24T05:48:27;1.70;;;1.57;;
43883;SDS011;29544;52.018;5.810;2023-04-24T05:50:53;2.00;;;1.50;;
43883;SDS011;29544;52.018;5.810;2023-04-24T05:53:18;3.37;;;1.57;;
43883;SDS011;29544;52.018;5.810;2023-04-24T05:55:44;3.60;;;2.17;;
43883;SDS011;29544;52.018;5.810;2023-04-24T05:58:10;4.38;;;1.65;;
43883;SDS011;29544;52.018;5.810;2023-04-24T06:00:36;1.63;;;1.25;;
43883;SDS011;29544;52.018;5.810;2023-04-24T06:03:02;3.38;;;1.80;;
43883;SDS011;29544;52.018;5.810;2023-04-24T06:05:28;3.05;;;1.45;;
43883;SDS011;29544;52.018;5.810;2023-04-24T06:07:54;2.95;;;1.58;;
43883;SDS011;29544;52.018;5.810;2023-04-24T06:10:20;2.57;;;1.53;;
43883;SDS011;29544;52.018;5.810;2023-04-24T06:12:46;1.90;;;1.50;;
43883;SDS011;29544;52.018;5.810;2023-04-24T06:15:11;2.10;;;1.40;;
43883;SDS011;29544;52.018;5.810;2023-04-24T06:17:37;2.03;;;1.60;;
43883;SDS011;29544;52.018;5.810;2023-04-24T06:20:03;6.10;;;1.90;;
43883;SDS011;29544;52.018;5.810;2023-04-24T06:22:30;2.05;;;1.50;;
43883;SDS011;29544;52.018;5.810;2023-04-24T06:24:56;1.43;;;1.33;;
43883;SDS011;29544;52.018;5.810;2023-04-24T06:27:21;2.27;;;1.37;;
43883;SDS011;29544;52.018;5.810;2023-04-24T06:29:47;13.27;;;1.97;;
43883;SDS011;29544;52.018;5.810;2023-04-24T06:32:19;2.95;;;1.38;;
43883;SDS011;29544;52.018;5.810;2023-04-24T06:34:45;2.72;;;1.52;;
43883;SDS011;29544;52.018;5.810;2023-04-24T06:37:11;2.33;;;1.40;;
43883;SDS011;29544;52.018;5.810;2023-04-24T06:39:37;5.67;;;1.97;;
43883;SDS011;29544;52.018;5.810;2023-04-24T06:42:02;3.57;;;1.33;;
43883;SDS011;29544;52.018;5.810;2023-04-24T06:44:28;2.17;;;1.43;;
43883;SDS011;29544;52.018;5.810;2023-04-24T06:46:53;2.43;;;1.40;;
43883;SDS011;29544;52.018;5.810;2023-04-24T06:49:19;2.53;;;1.20;;
43883;SDS011;29544;52.018;5.810;2023-04-24T06:51:45;2.65;;;1.10;;
43883;SDS011;29544;52.018;5.810;2023-04-24T06:54:10;1.70;;;1.10;;
43883;SDS011;29544;52.018;5.810;2023-04-24T06:56:36;1.93;;;1.37;;
43883;SDS011;29544;52.018;5.810;2023-04-24T06:59:01;2.45;;;1.23;;
43883;SDS011;29544;52.018;5.810;2023-04-24T07:01:27;3.07;;;1.37;;
43883;SDS011;29544;52.018;5.810;2023-04-24T07:03:52;3.93;;;1.27;;
43883;SDS011;29544;52.018;5.810;2023-04-24T07:06:18;1.93;;;1.23;;
43883;SDS011;29544;52.018;5.810;2023-04-24T07:08:46;2.90;;;1.20;;
43883;SDS011;29544;52.018;5.810;2023-04-24T07:11:12;1.70;;;1.05;;
43883;SDS011;29544;52.018;5.810;2023-04-24T07:13:37;2.37;;;1.17;;
43883;SDS011;29544;52.018;5.810;2023-04-24T07:16:06;1.10;;;0.90;;
43883;SDS011;29544;52.018;5.810;2023-04-24T07:20:58;2.47;;;1.15;;
43883;SDS011;29544;52.018;5.810;2023-04-24T07:23:24;3.27;;;1.23;;
43883;SDS011;29544;52.018;5.810;2023-04-24T07:25:49;2.83;;;1.00;;
43883;SDS011;29544;52.018;5.810;2023-04-24T07:28:15;2.23;;;1.20;;
43883;SDS011;29544;52.018;5.810;2023-04-24T07:30:42;4.35;;;1.23;;
43883;SDS011;29544;52.018;5.810;2023-04-24T07:33:08;2.20;;;1.10;;
43883;SDS011;29544;52.018;5.810;2023-04-24T07:35:36;1.92;;;0.88;;
43883;SDS011;29544;52.018;5.810;2023-04-24T07:38:01;2.13;;;0.93;;
43883;SDS011;29544;52.018;5.810;2023-04-24T07:40:27;3.60;;;0.87;;
43883;SDS011;29544;52.018;5.810;2023-04-24T07:42:52;4.10;;;0.90;;
43883;SDS011;29544;52.018;5.810;2023-04-24T07:45:18;1.77;;;0.90;;
43883;SDS011;29544;52.018;5.810;2023-04-24T07:47:43;1.83;;;0.90;;
43883;SDS011;29544;52.018;5.810;2023-04-24T07:50:10;1.55;;;0.85;;
43883;SDS011;29544;52.018;5.810;2023-04-24T07:52:36;1.52;;;0.77;;
43883;SDS011;29544;52.018;5.810;2023-04-24T07:55:02;1.93;;;0.87;;
43883;SDS011;29544;52.018;5.810;2023-04-24T07:57:28;1.63;;;0.90;;
43883;SDS011;29544;52.018;5.810;2023-04-24T07:59:54;1.30;;;0.80;;
43883;SDS011;29544;52.018;5.810;2023-04-24T08:02:20;1.23;;;0.70;;
43883;SDS011;29544;52.018;5.810;2023-04-24T08:04:51;2.08;;;1.17;;
43883;SDS011;29544;52.018;5.810;2023-04-24T08:07:17;4.82;;;1.00;;
43883;SDS011;29544;52.018;5.810;2023-04-24T08:09:43;3.33;;;0.83;;
43883;SDS011;29544;52.018;5.810;2023-04-24T08:12:09;2.67;;;0.90;;
43883;SDS011;29544;52.018;5.810;2023-04-24T08:14:34;2.77;;;0.80;;
43883;SDS011;29544;52.018;5.810;2023-04-24T08:17:00;1.80;;;0.90;;
43883;SDS011;29544;52.018;5.810;2023-04-24T08:19:26;2.65;;;0.95;;
43883;SDS011;29544;52.018;5.810;2023-04-24T08:21:51;1.00;;;0.80;;
43883;SDS011;29544;52.018;5.810;2023-04-24T08:24:17;1.30;;;0.80;;
43883;SDS011;29544;52.018;5.810;2023-04-24T08:26:42;1.50;;;0.90;;
43883;SDS011;29544;52.018;5.810;2023-04-24T08:29:08;3.43;;;1.10;;
43883;SDS011;29544;52.018;5.810;2023-04-24T08:31:34;1.47;;;0.87;;
43883;SDS011;29544;52.018;5.810;2023-04-24T08:34:00;2.05;;;0.90;;
43883;SDS011;29544;52.018;5.810;2023-04-24T08:36:25;2.23;;;1.00;;
43883;SDS011;29544;52.018;5.810;2023-04-24T08:38:51;1.60;;;0.85;;
43883;SDS011;29544;52.018;5.810;2023-04-24T08:41:17;2.47;;;0.85;;
43883;SDS011;29544;52.018;5.810;2023-04-24T08:43:45;2.75;;;0.98;;
43883;SDS011;29544;52.018;5.810;2023-04-24T08:46:11;3.85;;;1.30;;
43883;SDS011;29544;52.018;5.810;2023-04-24T08:48:38;2.80;;;1.30;;
43883;SDS011;29544;52.018;5.810;2023-04-24T08:51:06;2.90;;;1.08;;
43883;SDS011;29544;52.018;5.810;2023-04-24T08:53:33;2.20;;;1.02;;
43883;SDS011;29544;52.018;5.810;2023-04-24T08:56:00;2.33;;;1.20;;
43883;SDS011;29544;52.018;5.810;2023-04-24T08:58:26;2.28;;;1.20;;
43883;SDS011;29544;52.018;5.810;2023-04-24T09:00:55;2.42;;;1.08;;
43883;SDS011;29544;52.018;5.810;2023-04-24T09:03:22;2.85;;;1.35;;
43883;SDS011;29544;52.018;5.810;2023-04-24T09:05:49;2.78;;;1.33;;
43883;SDS011;29544;52.018;5.810;2023-04-24T09:08:16;2.70;;;1.58;;
43883;SDS011;29544;52.018;5.810;2023-04-24T09:10:44;2.85;;;1.55;;
43883;SDS011;29544;52.018;5.810;2023-04-24T09:13:10;1.90;;;1.10;;
43883;SDS011;29544;52.018;5.810;2023-04-24T09:15:37;2.92;;;1.60;;
43883;SDS011;29544;52.018;5.810;2023-04-24T09:20:29;3.05;;;1.50;;
43883;SDS011;29544;52.018;5.810;2023-04-24T09:22:54;1.50;;;1.07;;
43883;SDS011;29544;52.018;5.810;2023-04-24T09:25:21;2.60;;;1.40;;
43883;SDS011;29544;52.018;5.810;2023-04-24T09:27:47;5.07;;;1.37;;
43883;SDS011;29544;52.018;5.810;2023-04-24T09:30:12;1.87;;;1.23;;
43883;SDS011;29544;52.018;5.810;2023-04-24T09:32:38;3.33;;;1.65;;
43883;SDS011;29544;52.018;5.810;2023-04-24T09:35:06;3.28;;;1.25;;
43883;SDS011;29544;52.018;5.810;2023-04-24T09:37:34;3.40;;;1.10;;
43883;SDS011;29544;52.018;5.810;2023-04-24T09:40:17;4.25;;;1.30;;
43883;SDS011;29544;52.018;5.810;2023-04-24T09:42:45;3.13;;;1.40;;
43883;SDS011;29544;52.018;5.810;2023-04-24T09:45:17;3.30;;;1.50;;
43883;SDS011;29544;52.018;5.810;2023-04-24T09:47:43;3.80;;;1.53;;
43883;SDS011;29544;52.018;5.810;2023-04-24T09:50:09;3.37;;;1.43;;
43883;SDS011;29544;52.018;5.810;2023-04-24T09:52:36;2.95;;;1.58;;
43883;SDS011;29544;52.018;5.810;2023-04-24T09:55:10;3.55;;;1.33;;
43883;SDS011;29544;52.018;5.810;2023-04-24T09:57:46;2.67;;;1.30;;
43883;SDS011;29544;52.018;5.810;2023-04-24T10:00:33;4.55;;;1.60;;
43883;SDS011;29544;52.018;5.810;2023-04-24T10:02:59;3.17;;;1.58;;
43883;SDS011;29544;52.018;5.810;2023-04-24T10:05:27;4.22;;;2.20;;
43883;SDS011;29544;52.018;5.810;2023-04-24T10:10:30;5.22;;;1.60;;
43883;SDS011;29544;52.018;5.810;2023-04-24T10:12:57;2.67;;;1.85;;
43883;SDS011;29544;52.018;5.810;2023-04-24T10:15:22;2.40;;;1.33;;
43883;SDS011;29544;52.018;5.810;2023-04-24T10:17:49;3.65;;;1.35;;
43883;SDS011;29544;52.018;5.810;2023-04-24T10:20:22;6.30;;;1.75;;
43883;SDS011;29544;52.018;5.810;2023-04-24T10:22:50;3.65;;;1.60;;
43883;SDS011;29544;52.018;5.810;2023-04-24T10:25:17;3.83;;;1.40;;
43883;SDS011;29544;52.018;5.810;2023-04-24T10:27:47;3.75;;;1.35;;
43883;SDS011;29544;52.018;5.810;2023-04-24T10:30:14;4.43;;;1.70;;
43883;SDS011;29544;52.018;5.810;2023-04-24T10:32:40;6.68;;;1.67;;
43883;SDS011;29544;52.018;5.810;2023-04-24T10:35:06;3.80;;;1.47;;
43883;SDS011;29544;52.018;5.810;2023-04-24T10:37:36;3.53;;;1.30;;
43883;SDS011;29544;52.018;5.810;2023-04-24T10:40:05;3.53;;;1.55;;
43883;SDS011;29544;52.018;5.810;2023-04-24T10:42:32;5.70;;;1.67;;
43883;SDS011;29544;52.018;5.810;2023-04-24T10:44:58;5.63;;;1.50;;
43883;SDS011;29544;52.018;5.810;2023-04-24T10:47:26;4.10;;;1.48;;
43883;SDS011;29544;52.018;5.810;2023-04-24T10:49:52;5.53;;;1.63;;
43883;SDS011;29544;52.018;5.810;2023-04-24T10:52:18;2.90;;;1.40;;
43883;SDS011;29544;52.018;5.810;2023-04-24T10:54:45;5.50;;;1.50;;
43883;SDS011;29544;52.018;5.810;2023-04-24T10:59:44;5.25;;;1.58;;
43883;SDS011;29544;52.018;5.810;2023-04-24T11:02:10;5.10;;;1.45;;
43883;SDS011;29544;52.018;5.810;2023-04-24T11:04:35;3.73;;;1.37;;
43883;SDS011;29544;52.018;5.810;2023-04-24T11:07:04;4.70;;;1.40;;
43883;SDS011;29544;52.018;5.810;2023-04-24T11:09:30;6.15;;;1.75;;
43883;SDS011;29544;52.018;5.810;2023-04-24T11:14:30;4.25;;;1.60;;
43883;SDS011;29544;52.018;5.810;2023-04-24T11:20:05;2.53;;;1.20;;
43883;SDS011;29544;52.018;5.810;2023-04-24T11:22:34;3.42;;;1.50;;
43883;SDS011;29544;52.018;5.810;2023-04-24T11:25:01;4.68;;;1.33;;
43883;SDS011;29544;52.018;5.810;2023-04-24T11:27:32;3.50;;;1.55;;
43883;SDS011;29544;52.018;5.810;2023-04-24T11:30:05;5.80;;;1.63;;
43883;SDS011;29544;52.018;5.810;2023-04-24T11:32:35;2.55;;;1.30;;
43883;SDS011;29544;52.018;5.810;2023-04-24T11:35:14;4.93;;;1.60;;
43883;SDS011;29544;52.018;5.810;2023-04-24T11:37:45;4.35;;;1.25;;
43883;SDS011;29544;52.018;5.810;2023-04-24T11:40:15;4.18;;;1.50;;
43883;SDS011;29544;52.018;5.810;2023-04-24T11:42:43;4.03;;;1.55;;
43883;SDS011;29544;52.018;5.810;2023-04-24T11:45:10;3.25;;;1.35;;
43883;SDS011;29544;52.018;5.810;2023-04-24T11:47:37;3.05;;;1.10;;
43883;SDS011;29544;52.018;5.810;2023-04-24T11:50:03;4.10;;;1.33;;
43883;SDS011;29544;52.018;5.810;2023-04-24T11:52:31;3.20;;;1.55;;
43883;SDS011;29544;52.018;5.810;2023-04-24T11:54:58;2.70;;;1.33;;
43883;SDS011;29544;52.018;5.810;2023-04-24T11:57:25;3.03;;;1.20;;
43883;SDS011;29544;52.018;5.810;2023-04-24T11:59:53;4.93;;;1.02;;
43883;SDS011;29544;52.018;5.810;2023-04-24T12:02:22;2.88;;;1.25;;
43883;SDS011;29544;52.018;5.810;2023-04-24T12:04:52;1.90;;;1.00;;
43883;SDS011;29544;52.018;5.810;2023-04-24T12:07:19;4.47;;;1.02;;
43883;SDS011;29544;52.018;5.810;2023-04-24T12:09:46;8.55;;;1.15;;
43883;SDS011;29544;52.018;5.810;2023-04-24T12:12:13;5.15;;;1.38;;
43883;SDS011;29544;52.018;5.810;2023-04-24T12:14:49;2.55;;;0.90;;
43883;SDS011;29544;52.018;5.810;2023-04-24T12:17:17;2.72;;;1.10;;
43883;SDS011;29544;52.018;5.810;2023-04-24T12:20:02;3.33;;;1.50;;
43883;SDS011;29544;52.018;5.810;2023-04-24T12:23:03;2.10;;;0.70;;
43883;SDS011;29544;52.018;5.810;2023-04-24T12:25:23;2.40;;;1.10;;
43883;SDS011;29544;52.018;5.810;2023-04-24T12:30:28;1.23;;;0.80;;
43883;SDS011;29544;52.018;5.810;2023-04-24T12:32:56;2.10;;;0.88;;
43883;SDS011;29544;52.018;5.810;2023-04-24T12:35:23;1.92;;;1.00;;
43883;SDS011;29544;52.018;5.810;2023-04-24T12:37:50;2.30;;;0.90;;
43883;SDS011;29544;52.018;5.810;2023-04-24T12:40:17;2.47;;;1.20;;
43883;SDS011;29544;52.018;5.810;2023-04-24T12:45:10;4.57;;;0.95;;
43883;SDS011;29544;52.018;5.810;2023-04-24T12:47:39;1.75;;;0.90;;
43883;SDS011;29544;52.018;5.810;2023-04-24T12:50:07;2.38;;;1.08;;
43883;SDS011;29544;52.018;5.810;2023-04-24T12:52:33;3.25;;;1.30;;
43883;SDS011;29544;52.018;5.810;2023-04-24T12:54:59;3.40;;;1.20;;
43883;SDS011;29544;52.018;5.810;2023-04-24T12:57:26;2.42;;;1.00;;
43883;SDS011;29544;52.018;5.810;2023-04-24T12:59:57;1.00;;;0.60;;
43883;SDS011;29544;52.018;5.810;2023-04-24T13:02:23;3.10;;;0.82;;
43883;SDS011;29544;52.018;5.810;2023-04-24T13:04:50;2.47;;;0.90;;
43883;SDS011;29544;52.018;5.810;2023-04-24T13:07:16;1.70;;;0.70;;
43883;SDS011;29544;52.018;5.810;2023-04-24T13:09:42;2.63;;;0.77;;
43883;SDS011;29544;52.018;5.810;2023-04-24T13:12:09;2.83;;;1.20;;
43883;SDS011;29544;52.018;5.810;2023-04-24T13:14:35;1.65;;;0.60;;
43883;SDS011;29544;52.018;5.810;2023-04-24T13:17:01;2.83;;;0.80;;
43883;SDS011;29544;52.018;5.810;2023-04-24T13:19:27;1.60;;;0.70;;
43883;SDS011;29544;52.018;5.810;2023-04-24T13:21:54;1.13;;;0.52;;
43883;SDS011;29544;52.018;5.810;2023-04-24T13:24:21;2.83;;;0.88;;
43883;SDS011;29544;52.018;5.810;2023-04-24T13:26:51;1.60;;;0.70;;
43883;SDS011;29544;52.018;5.810;2023-04-24T13:29:21;3.97;;;0.65;;
43883;SDS011;29544;52.018;5.810;2023-04-24T13:31:47;0.82;;;0.50;;
43883;SDS011;29544;52.018;5.810;2023-04-24T13:34:14;2.72;;;0.82;;
43883;SDS011;29544;52.018;5.810;2023-04-24T13:36:40;2.60;;;0.80;;
43883;SDS011;29544;52.018;5.810;2023-04-24T13:39:05;1.50;;;0.70;;
43883;SDS011;29544;52.018;5.810;2023-04-24T13:41:32;1.20;;;0.53;;
43883;SDS011;29544;52.018;5.810;2023-04-24T13:43:58;0.90;;;0.40;;
43883;SDS011;29544;52.018;5.810;2023-04-24T13:46:24;1.20;;;0.60;;
43883;SDS011;29544;52.018;5.810;2023-04-24T13:48:49;4.30;;;0.88;;
43883;SDS011;29544;52.018;5.810;2023-04-24T13:51:15;1.13;;;0.67;;
43883;SDS011;29544;52.018;5.810;2023-04-24T13:53:41;2.03;;;0.83;;
43883;SDS011;29544;52.018;5.810;2023-04-24T13:56:06;3.00;;;1.00;;
43883;SDS011;29544;52.018;5.810;2023-04-24T13:58:33;3.55;;;0.75;;
43883;SDS011;29544;52.018;5.810;2023-04-24T14:00:58;1.90;;;0.70;;
43883;SDS011;29544;52.018;5.810;2023-04-24T14:03:24;4.10;;;1.40;;
43883;SDS011;29544;52.018;5.810;2023-04-24T14:05:50;1.63;;;0.73;;
43883;SDS011;29544;52.018;5.810;2023-04-24T14:08:15;3.47;;;0.90;;
43883;SDS011;29544;52.018;5.810;2023-04-24T14:10:42;1.73;;;0.67;;
43883;SDS011;29544;52.018;5.810;2023-04-24T14:15:34;1.75;;;0.80;;
43883;SDS011;29544;52.018;5.810;2023-04-24T14:18:01;2.58;;;1.02;;
43883;SDS011;29544;52.018;5.810;2023-04-24T14:20:28;3.05;;;0.80;;
43883;SDS011;29544;52.018;5.810;2023-04-24T14:22:53;1.40;;;0.70;;
43883;SDS011;29544;52.018;5.810;2023-04-24T14:25:19;3.00;;;0.87;;
43883;SDS011;29544;52.018;5.810;2023-04-24T14:27:44;2.00;;;0.90;;
43883;SDS011;29544;52.018;5.810;2023-04-24T14:30:10;2.60;;;0.90;;
43883;SDS011;29544;52.018;5.810;2023-04-24T14:32:38;3.28;;;1.05;;
43883;SDS011;29544;52.018;5.810;2023-04-24T14:35:04;1.48;;;0.88;;
43883;SDS011;29544;52.018;5.810;2023-04-24T14:37:30;3.60;;;0.82;;
43883;SDS011;29544;52.018;5.810;2023-04-24T14:39:56;2.20;;;0.83;;
43883;SDS011;29544;52.018;5.810;2023-04-24T14:42:22;2.80;;;0.90;;
43883;SDS011;29544;52.018;5.810;2023-04-24T14:44:47;2.27;;;0.80;;
43883;SDS011;29544;52.018;5.810;2023-04-24T14:47:13;3.43;;;0.80;;
43883;SDS011;29544;52.018;5.810;2023-04-24T14:49:38;2.53;;;1.00;;
43883;SDS011;29544;52.018;5.810;2023-04-24T14:52:04;1.97;;;0.90;;
43883;SDS011;29544;52.018;5.810;2023-04-24T14:54:29;4.47;;;1.57;;
43883;SDS011;29544;52.018;5.810;2023-04-24T14:56:55;4.50;;;1.30;;
43883;SDS011;29544;52.018;5.810;2023-04-24T14:59:24;2.75;;;1.00;;
43883;SDS011;29544;52.018;5.810;2023-04-24T15:01:49;3.40;;;1.20;;
43883;SDS011;29544;52.018;5.810;2023-04-24T15:04:16;2.20;;;0.85;;
43883;SDS011;29544;52.018;5.810;2023-04-24T15:06:42;2.70;;;1.10;;
43883;SDS011;29544;52.018;5.810;2023-04-24T15:09:07;2.80;;;1.03;;
43883;SDS011;29544;52.018;5.810;2023-04-24T15:11:33;4.80;;;1.40;;
43883;SDS011;29544;52.018;5.810;2023-04-24T15:13:58;4.90;;;1.50;;